Time;durP1;ratioP1;P1;durP2;ratioP2;P2;SDS_P1;SDS_P2;PMS_P1;PMS_P2;Temp;Humidity;BMP_temperature;BMP_pressure;BME280_temperature;BME280_humidity;BME280_pressure;Samples;Min_cycle;Max_cycle;Signal;HPM_P1;HPM_P2
2022/02/08 00:00:19;;;;;;;10.25;2.38;;;;;;;4.32;92.66;101997.34;680549;28;2984;-52
2022/02/08 00:00:41;;;;;;;9.43;2.50;;;;;;;4.31;93.11;102000.78;681224;28;2433;-52
2022/02/08 00:01:02;;;;;;;9.45;2.53;;;;;;;4.39;92.48;101996.81;680169;28;4817;-51
2022/02/08 00:01:23;;;;;;;9.38;3.00;;;;;;;4.39;91.86;101995.09;682432;28;821;-52
2022/02/08 00:01:56;;;;;;;9.60;2.90;;;;;;;4.38;92.26;102001.06;682423;28;929;-51
2022/02/08 00:02:17;;;;;;;11.20;3.45;;;;;;;4.35;92.96;101994.91;681768;28;1010;-54
2022/02/08 00:02:42;;;;;;;11.70;2.78;;;;;;;4.36;92.58;102000.16;682535;28;1392;-53
2022/02/08 00:03:03;;;;;;;13.32;3.13;;;;;;;4.41;92.23;101998.59;679444;28;3122;-52
2022/02/08 00:03:23;;;;;;;9.40;2.70;;;;;;;4.45;91.31;101994.47;680961;28;3418;-55
2022/02/08 00:03:44;;;;;;;9.25;2.75;;;;;;;4.45;92.07;101998.75;680072;28;1371;-53
2022/02/08 00:04:05;;;;;;;11.53;2.90;;;;;;;4.42;92.98;102002.97;677016;28;4878;-55
2022/02/08 00:04:26;;;;;;;10.47;3.20;;;;;;;4.41;93.02;101998.59;681825;28;1314;-52
2022/02/08 00:04:48;;;;;;;9.70;3.00;;;;;;;4.38;93.52;101998.50;681679;28;1387;-52
2022/02/08 00:05:10;;;;;;;11.40;3.17;;;;;;;4.34;93.93;101996.59;681648;28;1391;-52
2022/02/08 00:05:31;;;;;;;13.27;3.45;;;;;;;4.32;94.23;101993.06;682058;28;1284;-52
2022/02/08 00:06:38;;;;;;;12.87;3.27;;;;;;;4.30;93.77;101991.22;682386;28;1145;-52
2022/02/08 00:06:56;;;;;;;11.97;3.33;;;;;;;4.28;93.71;101996.34;681201;28;1189;-52
2022/02/08 00:07:17;;;;;;;12.40;2.97;;;;;;;4.28;93.73;101991.16;680276;28;4977;-51
2022/02/08 00:07:38;;;;;;;10.87;2.90;;;;;;;4.28;93.32;101993.75;682408;28;1296;-56
2022/02/08 00:07:58;;;;;;;11.05;3.00;;;;;;;4.27;93.30;101991.97;678413;28;1278;-51
2022/02/08 00:08:19;;;;;;;11.33;3.20;;;;;;;4.25;93.66;101991.00;679345;28;1300;-55
2022/02/08 00:08:39;;;;;;;11.60;3.70;;;;;;;4.24;93.80;101984.09;678901;29;1383;-51
2022/02/08 00:09:00;;;;;;;10.65;3.45;;;;;;;4.24;93.49;102000.50;678703;28;3409;-54
2022/02/08 00:09:21;;;;;;;10.40;3.00;;;;;;;4.23;94.18;101990.06;677989;28;1300;-54
2022/02/08 00:09:42;;;;;;;9.60;3.00;;;;;;;4.22;94.10;101989.22;679201;28;1171;-52
2022/02/08 00:10:03;;;;;;;9.32;3.05;;;;;;;4.22;94.78;101994.38;679493;28;5467;-57
2022/02/08 00:10:27;;;;;;;11.02;2.88;;;;;;;4.21;94.87;101989.13;680070;28;2832;-52
2022/02/08 00:10:48;;;;;;;11.90;2.90;;;;;;;4.20;94.64;101987.38;677562;29;1920;-56
2022/02/08 00:11:09;;;;;;;10.10;2.85;;;;;;;4.20;94.99;101989.97;674682;29;2047;-52
2022/02/08 00:11:30;;;;;;;9.15;2.78;;;;;;;4.18;94.90;101995.06;677001;29;1305;-52
2022/02/08 00:11:50;;;;;;;9.83;2.73;;;;;;;4.18;95.16;101996.75;674212;29;3206;-52
2022/02/08 00:12:11;;;;;;;9.90;2.67;;;;;;;4.19;94.94;101990.78;675725;29;1173;-53
2022/02/08 00:12:32;;;;;;;10.52;3.00;;;;;;;4.18;94.53;101986.41;677055;29;1283;-53
2022/02/08 00:12:53;;;;;;;8.95;3.03;;;;;;;4.28;94.30;101992.84;678821;29;1327;-51
2022/02/08 00:13:13;;;;;;;7.53;2.63;;;;;;;4.31;94.29;101986.13;678567;28;5385;-52
2022/02/08 00:13:34;;;;;;;9.60;3.20;;;;;;;4.50;93.16;101986.88;679091;28;1241;-52
2022/02/08 00:13:54;;;;;;;9.17;2.70;;;;;;;4.56;93.40;101984.53;679148;29;1293;-54
2022/02/08 00:14:15;;;;;;;9.00;2.60;;;;;;;4.54;93.93;101987.06;676033;29;1165;-54
2022/02/08 00:14:35;;;;;;;10.32;2.72;;;;;;;4.54;94.07;101978.41;675659;29;3492;-53
2022/02/08 00:14:55;;;;;;;10.70;2.80;;;;;;;4.54;93.53;101986.16;676629;29;1165;-54
2022/02/08 00:15:16;;;;;;;9.30;2.70;;;;;;;4.55;93.36;101990.53;675942;29;1166;-53
2022/02/08 00:15:36;;;;;;;10.13;2.70;;;;;;;4.50;93.16;101982.59;677300;29;1316;-53
2022/02/08 00:15:57;;;;;;;11.90;3.00;;;;;;;4.51;92.89;101986.06;679338;28;1436;-53
2022/02/08 00:16:17;;;;;;;10.00;2.90;;;;;;;4.49;92.87;101985.13;680863;28;4338;-55
2022/02/08 00:16:38;;;;;;;8.82;2.80;;;;;;;4.64;92.47;101985.75;681739;28;1303;-53
2022/02/08 00:16:59;;;;;;;9.52;2.70;;;;;;;4.71;92.27;101992.06;681619;28;1771;-54
2022/02/08 00:17:20;;;;;;;13.07;2.90;;;;;;;4.68;92.00;101984.16;679431;29;3338;-54
2022/02/08 00:17:40;;;;;;;11.57;2.80;;;;;;;4.77;92.03;101994.91;680171;28;2099;-53
2022/02/08 00:18:01;;;;;;;9.70;2.78;;;;;;;4.75;92.14;101994.84;678101;28;1691;-52
2022/02/08 00:18:23;;;;;;;10.77;2.53;;;;;;;4.70;92.64;101985.09;677204;29;2005;-53
2022/02/08 00:18:44;;;;;;;9.98;2.70;;;;;;;4.65;92.26;101989.22;678613;29;1304;-54
2022/02/08 00:19:05;;;;;;;10.05;2.70;;;;;;;4.60;92.74;101981.25;675977;28;4342;-54
2022/02/08 00:19:25;;;;;;;10.88;2.67;;;;;;;4.55;92.86;101986.22;680289;29;1426;-53
2022/02/08 00:19:46;;;;;;;11.40;3.00;;;;;;;4.52;93.40;101987.84;677812;29;1888;-51
2022/02/08 00:20:10;;;;;;;10.18;2.85;;;;;;;4.49;93.35;101977.34;674790;29;3049;-53
2022/02/08 00:20:30;;;;;;;11.48;3.08;;;;;;;4.47;93.54;101986.75;676777;29;4175;-52
2022/02/08 00:20:50;;;;;;;11.23;3.13;;;;;;;4.46;93.34;101984.97;677068;29;2828;-52
2022/02/08 00:21:11;;;;;;;10.35;3.20;;;;;;;4.61;93.94;101985.63;677064;29;1416;-53
2022/02/08 00:21:31;;;;;;;10.07;2.87;;;;;;;4.62;93.45;101991.69;677863;29;1238;-51
2022/02/08 00:21:52;;;;;;;11.43;3.00;;;;;;;4.58;93.66;101990.66;680845;28;1410;-51
2022/02/08 00:22:13;;;;;;;11.03;3.00;;;;;;;4.55;94.10;101987.94;681166;28;4401;-52
2022/02/08 00:22:35;;;;;;;11.73;3.30;;;;;;;4.53;93.71;101987.03;679034;29;1315;-53
2022/02/08 00:22:56;;;;;;;13.80;3.50;;;;;;;4.57;93.77;101978.56;677925;28;3229;-55
2022/02/08 00:23:16;;;;;;;13.53;3.07;;;;;;;4.62;93.03;101984.78;676248;29;1377;-54
2022/02/08 00:23:37;;;;;;;10.52;3.40;;;;;;;4.63;92.82;101983.09;675845;29;2732;-52
2022/02/08 00:23:58;;;;;;;9.97;3.30;;;;;;;4.59;93.26;101982.06;676267;29;1740;-53
2022/02/08 00:24:19;;;;;;;10.20;3.10;;;;;;;4.56;93.67;101979.38;679421;28;1187;-56
2022/02/08 00:24:40;;;;;;;11.65;3.42;;;;;;;4.52;93.99;101983.53;680466;28;1078;-54
2022/02/08 00:25:01;;;;;;;12.93;3.40;;;;;;;4.50;94.42;101981.69;680802;28;4455;-52
2022/02/08 00:25:21;;;;;;;12.20;2.90;;;;;;;4.48;94.68;101976.44;676194;29;2467;-51
2022/02/08 00:25:41;;;;;;;11.97;3.00;;;;;;;4.45;93.67;101978.91;676121;29;1288;-53
2022/02/08 00:26:02;;;;;;;11.65;2.88;;;;;;;4.43;94.19;101983.13;676190;29;3589;-53
2022/02/08 00:26:22;;;;;;;14.27;3.40;;;;;;;4.43;94.37;101978.84;676354;29;1568;-51
2022/02/08 00:26:43;;;;;;;15.10;3.60;;;;;;;4.45;94.81;101984.09;676509;29;1624;-55
2022/02/08 00:27:05;;;;;;;13.80;3.63;;;;;;;4.49;94.00;101983.41;672767;29;1632;-54
2022/02/08 00:27:26;;;;;;;9.27;2.70;;;;;;;4.52;93.87;101980.06;676837;29;1319;-52
2022/02/08 00:27:46;;;;;;;11.18;2.75;;;;;;;4.51;94.29;101983.47;675402;28;1578;-52
2022/02/08 00:28:07;;;;;;;12.63;3.20;;;;;;;4.49;93.97;101978.22;676058;29;4330;-51
2022/02/08 00:28:28;;;;;;;12.10;3.10;;;;;;;4.48;94.59;101975.56;676801;29;1194;-52
2022/02/08 00:28:52;;;;;;;11.68;2.88;;;;;;;4.64;94.57;101979.66;677061;28;3184;-51
2022/02/08 00:29:14;;;;;;;11.18;2.98;;;;;;;4.64;94.29;101975.38;678407;28;1170;-51
2022/02/08 00:29:34;;;;;;;12.38;3.50;;;;;;;4.60;94.42;101974.38;679765;28;1209;-54
2022/02/08 00:29:55;;;;;;;10.67;3.00;;;;;;;4.58;94.94;101982.88;681229;28;1272;-51
2022/02/08 00:30:15;;;;;;;12.15;3.15;;;;;;;4.54;95.28;101981.00;680333;28;1101;-52
2022/02/08 00:30:35;;;;;;;14.17;3.30;;;;;;;4.53;95.86;101976.66;674549;29;1163;-52
2022/02/08 00:30:56;;;;;;;9.90;2.55;;;;;;;4.52;95.75;101975.75;675132;29;1242;-51
2022/02/08 00:31:17;;;;;;;11.43;2.47;;;;;;;4.53;96.15;101976.66;675154;29;4477;-52
2022/02/08 00:31:37;;;;;;;15.63;3.15;;;;;;;4.51;96.18;101975.69;675330;29;3460;-52
2022/02/08 00:31:58;;;;;;;15.05;3.38;;;;;;;4.48;97.03;101973.84;673428;29;1365;-52
2022/02/08 00:32:19;;;;;;;10.60;3.10;;;;;;;4.46;96.43;101977.19;671056;29;1439;-55
2022/02/08 00:32:41;;;;;;;13.23;3.15;;;;;;;4.45;97.04;101972.88;672550;29;1285;-53
2022/02/08 00:33:01;;;;;;;12.33;2.90;;;;;;;4.46;97.20;101972.94;669948;29;1267;-51
2022/02/08 00:33:22;;;;;;;13.57;2.92;;;;;;;4.65;96.17;101966.78;673142;29;1329;-52
2022/02/08 00:33:42;;;;;;;13.07;3.10;;;;;;;4.65;95.95;101974.53;671630;29;1238;-51
2022/02/08 00:34:03;;;;;;;12.87;3.00;;;;;;;4.62;95.85;101976.13;672928;29;4568;-51
2022/02/08 00:34:23;;;;;;;12.45;2.90;;;;;;;4.59;96.32;101970.00;672528;29;3606;-51
2022/02/08 00:34:43;;;;;;;12.80;2.90;;;;;;;4.58;96.55;101969.94;674540;29;1218;-52
2022/02/08 00:35:05;;;;;;;12.57;2.77;;;;;;;4.57;96.59;101976.84;674389;29;1455;-54
2022/02/08 00:35:25;;;;;;;12.27;3.15;;;;;;;4.65;96.64;101982.31;678026;29;2035;-53
2022/02/08 00:35:46;;;;;;;12.53;3.10;;;;;;;4.67;96.06;101975.50;678942;28;1489;-53
2022/02/08 00:36:06;;;;;;;12.48;3.33;;;;;;;4.68;96.62;101977.28;678310;28;1383;-51
2022/02/08 00:36:27;;;;;;;11.85;3.20;;;;;;;4.66;96.59;101978.03;681201;28;1553;-52
2022/02/08 00:36:48;;;;;;;12.85;3.15;;;;;;;4.62;97.41;101981.31;681634;28;1752;-51
2022/02/08 00:37:09;;;;;;;11.60;3.03;;;;;;;4.62;96.98;101970.97;679689;28;4396;-54
2022/02/08 00:37:29;;;;;;;9.90;2.90;;;;;;;4.62;97.35;101977.00;680860;28;3754;-53
2022/02/08 00:37:49;;;;;;;8.95;2.58;;;;;;;4.59;96.83;101979.50;680422;28;1212;-52
2022/02/08 00:38:12;;;;;;;12.87;3.00;;;;;;;4.57;97.11;101974.25;680570;28;1311;-53
2022/02/08 00:38:35;;;;;;;14.60;3.40;;;;;;;4.60;97.94;101976.09;680927;28;1355;-54
2022/02/08 00:38:55;;;;;;;15.02;4.00;;;;;;;4.64;98.72;101975.38;681035;28;1244;-53
2022/02/08 00:39:15;;;;;;;15.37;3.67;;;;;;;4.75;98.11;101981.88;680360;28;4608;-54
2022/02/08 00:39:36;;;;;;;11.67;3.10;;;;;;;4.69;98.79;101976.44;681218;28;1260;-51
2022/02/08 00:39:56;;;;;;;12.27;3.20;;;;;;;4.64;99.46;101975.38;680799;28;1922;-55
2022/02/08 00:40:19;;;;;;;12.97;3.50;;;;;;;4.64;99.06;101980.56;681016;28;4349;-54
2022/02/08 00:40:43;;;;;;;12.73;3.83;;;;;;;4.71;99.43;101972.22;682578;28;1263;-54
2022/02/08 00:41:05;;;;;;;11.27;3.20;;;;;;;4.73;99.16;101980.91;680512;28;1244;-54
2022/02/08 00:41:28;;;;;;;16.38;3.40;;;;;;;4.70;98.47;101979.94;681854;28;1433;-52
2022/02/08 00:41:48;;;;;;;15.65;4.00;;;;;;;4.63;100.00;101978.78;681048;28;1121;-52
2022/02/08 00:42:11;;;;;;;12.40;3.70;;;;;;;4.71;100.00;101977.41;679666;28;1437;-52
2022/02/08 00:42:33;;;;;;;13.40;3.70;;;;;;;4.72;100.00;101974.00;680857;28;1113;-52
2022/02/08 00:42:54;;;;;;;14.20;3.40;;;;;;;4.79;99.35;101982.91;678179;28;3396;-52
2022/02/08 00:43:22;;;;;;;12.63;3.30;;;;;;;4.76;100.00;101975.88;676050;28;4349;-55
2022/02/08 00:43:56;;;;;;;15.75;3.72;;;;;;;4.88;99.02;101977.19;678996;28;1129;-53
2022/02/08 00:44:22;;;;;;;11.07;3.25;;;;;;;4.82;100.00;101975.25;675416;29;2117;-54
2022/02/08 00:44:48;;;;;;;11.80;3.95;;;;;;;4.80;99.91;101974.28;674618;29;2156;-55
2022/02/08 00:45:34;;;;;;;13.40;3.58;;;;;;;4.81;100.00;101978.66;671484;29;1136;-53
2022/02/08 00:46:00;;;;;;;13.40;3.20;;;;;;;4.78;100.00;101976.81;671890;29;3504;-52
2022/02/08 00:47:42;;;;;;;11.95;3.13;;;;;;;4.73;100.00;101967.09;667942;29;1317;-55
2022/02/08 00:48:19;;;;;;;13.43;3.67;;;;;;;4.71;100.00;101963.56;668639;29;1480;-56
2022/02/08 00:48:42;;;;;;;12.73;3.47;;;;;;;4.69;100.00;101958.31;666380;29;3556;-53
2022/02/08 00:49:06;;;;;;;12.98;3.60;;;;;;;4.78;100.00;101963.00;665311;29;4372;-51
2022/02/08 00:49:29;;;;;;;15.27;3.83;;;;;;;4.72;100.00;101967.91;669397;29;1496;-52
2022/02/08 00:49:50;;;;;;;15.00;3.45;;;;;;;4.67;100.00;101972.03;671053;29;1522;-52
2022/02/08 00:50:11;;;;;;;15.60;3.13;;;;;;;4.63;100.00;101970.16;675952;29;1719;-52
2022/02/08 00:50:32;;;;;;;13.57;3.40;;;;;;;4.67;100.00;101970.31;675657;29;1307;-56
2022/02/08 00:50:52;;;;;;;16.50;4.27;;;;;;;4.76;100.00;101975.88;676374;29;1326;-53
2022/02/08 00:51:17;;;;;;;13.95;3.40;;;;;;;4.75;100.00;101970.66;673512;29;3258;-54
2022/02/08 00:52:07;;;;;;;12.85;3.38;;;;;;;4.70;100.00;101966.97;674533;29;4591;-55
2022/02/08 00:52:28;;;;;;;13.23;3.55;;;;;;;4.65;100.00;101965.91;675608;29;1474;-53
2022/02/08 00:52:48;;;;;;;16.97;3.93;;;;;;;4.69;100.00;101960.03;677870;29;1118;-55
2022/02/08 00:53:08;;;;;;;14.38;3.30;;;;;;;4.79;100.00;101959.59;680627;28;1110;-52
2022/02/08 00:53:29;;;;;;;13.07;3.23;;;;;;;4.78;100.00;101960.41;675233;29;1364;-55
2022/02/08 00:53:49;;;;;;;15.60;3.70;;;;;;;4.75;100.00;101968.06;671496;29;1222;-55
2022/02/08 00:54:11;;;;;;;12.37;3.50;;;;;;;4.69;100.00;101971.25;673667;29;1742;-52
2022/02/08 00:54:33;;;;;;;11.25;2.95;;;;;;;4.68;100.00;101961.75;674014;29;1722;-55
2022/02/08 00:54:54;;;;;;;10.98;3.08;;;;;;;4.78;100.00;101963.84;673515;29;1188;-53
2022/02/08 00:55:14;;;;;;;11.13;3.30;;;;;;;4.78;100.00;101965.56;673879;28;4579;-55
2022/02/08 00:55:38;;;;;;;13.15;3.40;;;;;;;4.70;100.00;101962.66;678794;28;1462;-52
2022/02/08 00:55:58;;;;;;;10.57;2.93;;;;;;;4.67;100.00;101959.97;679537;28;1316;-51
2022/02/08 00:56:20;;;;;;;11.35;3.30;;;;;;;4.64;100.00;101959.84;679368;29;1237;-55
2022/02/08 00:56:40;;;;;;;16.17;3.72;;;;;;;4.60;100.00;101965.72;679090;29;1285;-53
2022/02/08 00:57:01;;;;;;;13.65;3.55;;;;;;;4.57;100.00;101965.59;674261;29;3343;-56
2022/02/08 00:57:22;;;;;;;14.07;3.47;;;;;;;4.68;100.00;101966.00;677497;29;3620;-55
2022/02/08 00:57:43;;;;;;;16.17;3.95;;;;;;;4.72;100.00;101966.22;677066;29;1196;-55
2022/02/08 00:58:04;;;;;;;10.30;3.60;;;;;;;4.76;100.00;101956.84;675681;29;4356;-51
2022/02/08 00:58:24;;;;;;;12.25;3.63;;;;;;;4.74;100.00;101961.97;678331;29;1213;-56
2022/02/08 00:58:44;;;;;;;14.77;4.30;;;;;;;4.71;100.00;101967.03;679668;28;1403;-55
2022/02/08 00:59:07;;;;;;;13.98;4.00;;;;;;;4.67;100.00;101962.56;680577;28;1387;-52
2022/02/08 00:59:28;;;;;;;13.45;3.55;;;;;;;4.70;100.00;101970.44;677338;29;1952;-53
2022/02/08 00:59:48;;;;;;;13.10;3.50;;;;;;;4.68;100.00;101974.69;678613;28;1911;-54
2022/02/08 01:00:10;;;;;;;12.30;3.40;;;;;;;4.73;100.00;101962.78;674338;29;3890;-53
2022/02/08 01:00:30;;;;;;;12.73;3.55;;;;;;;4.75;100.00;101965.47;673142;29;1550;-52
2022/02/08 01:00:51;;;;;;;12.18;3.40;;;;;;;4.71;100.00;101967.03;671683;29;1155;-52
2022/02/08 01:01:11;;;;;;;13.13;3.40;;;;;;;4.69;100.00;101963.47;671125;29;5302;-53
2022/02/08 01:01:35;;;;;;;11.95;3.10;;;;;;;4.71;100.00;101960.97;675687;29;1285;-53
2022/02/08 01:01:55;;;;;;;13.25;3.33;;;;;;;4.75;100.00;101966.34;672780;29;1404;-52
2022/02/08 01:02:16;;;;;;;12.50;3.57;;;;;;;4.73;100.00;101961.91;674212;29;1491;-53
2022/02/08 01:02:36;;;;;;;12.20;3.63;;;;;;;4.70;100.00;101966.97;673323;29;3121;-53
2022/02/08 01:02:58;;;;;;;12.43;3.30;;;;;;;4.65;100.00;101961.59;673594;29;4584;-52
2022/02/08 01:03:19;;;;;;;10.90;3.33;;;;;;;4.62;100.00;101961.47;673687;29;1532;-57
2022/02/08 01:03:42;;;;;;;10.93;3.38;;;;;;;4.59;100.00;101963.94;677278;29;1508;-54
2022/02/08 01:04:06;;;;;;;11.80;3.63;;;;;;;4.55;100.00;101962.06;674466;29;4355;-53
2022/02/08 01:04:26;;;;;;;15.52;3.60;;;;;;;4.56;100.00;101966.41;673928;29;1442;-54
2022/02/08 01:04:53;;;;;;;13.57;3.10;;;;;;;4.73;100.00;101964.50;674667;29;1530;-52
2022/02/08 01:05:15;;;;;;;11.27;3.22;;;;;;;4.80;100.00;101965.63;677130;29;1149;-53
2022/02/08 01:05:43;;;;;;;10.95;3.28;;;;;;;4.83;100.00;101965.75;672899;29;3417;-52
2022/02/08 01:06:08;;;;;;;13.85;3.47;;;;;;;4.80;100.00;101966.50;675369;29;1210;-53
2022/02/08 01:06:28;;;;;;;12.18;3.45;;;;;;;4.77;100.00;101967.25;675709;29;1451;-52
2022/02/08 01:06:50;;;;;;;11.07;3.40;;;;;;;4.75;100.00;101968.06;674939;29;1222;-54
2022/02/08 01:07:10;;;;;;;11.73;3.35;;;;;;;4.72;100.00;101962.72;676038;28;4492;-55
2022/02/08 01:07:31;;;;;;;9.73;3.20;;;;;;;4.74;100.00;101972.34;673057;29;1199;-52
2022/02/08 01:07:52;;;;;;;8.82;3.15;;;;;;;4.69;100.00;101966.06;673508;29;1449;-52
2022/02/08 01:08:13;;;;;;;10.73;3.25;;;;;;;4.76;100.00;101969.78;672947;29;3088;-56
2022/02/08 01:08:37;;;;;;;10.07;2.92;;;;;;;4.73;100.00;101964.50;677941;29;3624;-55
2022/02/08 01:09:10;;;;;;;12.48;3.33;;;;;;;4.70;100.00;101959.22;678576;28;1276;-53
2022/02/08 01:10:00;;;;;;;11.55;3.53;;;;;;;4.60;100.00;101970.91;681328;28;1273;-55
2022/02/08 01:10:23;;;;;;;11.63;3.30;;;;;;;4.67;100.00;101965.13;677737;28;6319;-51
2022/02/08 01:10:44;;;;;;;13.30;3.45;;;;;;;4.66;100.00;101970.25;676252;29;1435;-52
2022/02/08 01:11:07;;;;;;;14.77;3.67;;;;;;;4.62;100.00;101971.84;675775;29;3077;-57
2022/02/08 01:11:27;;;;;;;14.85;4.00;;;;;;;4.61;100.00;101975.28;675967;29;3954;-55
2022/02/08 01:11:52;;;;;;;11.33;3.57;;;;;;;4.57;100.00;101966.47;673822;29;1231;-52
2022/02/08 01:12:13;;;;;;;13.55;3.63;;;;;;;4.56;100.00;101975.06;675700;29;1568;-53
2022/02/08 01:12:35;;;;;;;13.13;3.90;;;;;;;4.55;100.00;101972.41;679502;28;1537;-55
2022/02/08 01:12:56;;;;;;;11.90;3.70;;;;;;;4.60;100.00;101974.38;679627;29;1288;-56
2022/02/08 01:13:16;;;;;;;12.07;3.70;;;;;;;4.61;100.00;101970.09;678781;28;4455;-56
2022/02/08 01:13:39;;;;;;;13.95;3.90;;;;;;;4.59;100.00;101971.72;679475;29;1241;-56
2022/02/08 01:14:01;;;;;;;10.43;3.88;;;;;;;4.57;100.00;101973.38;678864;28;2102;-55
2022/02/08 01:14:24;;;;;;;11.67;3.80;;;;;;;4.60;100.00;101979.53;675375;29;4153;-53
2022/02/08 01:14:48;;;;;;;13.70;4.18;;;;;;;4.59;100.00;101972.59;671110;29;1222;-54
2022/02/08 01:15:09;;;;;;;13.07;3.50;;;;;;;4.62;100.00;101979.59;671651;29;1059;-55
2022/02/08 01:15:30;;;;;;;13.95;3.72;;;;;;;4.59;100.00;101976.91;674365;29;1449;-53
2022/02/08 01:15:51;;;;;;;14.07;3.47;;;;;;;4.56;100.00;101976.78;674902;29;1304;-56
2022/02/08 01:16:11;;;;;;;12.50;3.83;;;;;;;4.59;100.00;101977.75;675423;29;4394;-52
2022/02/08 01:16:32;;;;;;;12.55;3.65;;;;;;;4.58;100.00;101981.22;679846;28;1070;-53
2022/02/08 01:16:52;;;;;;;9.60;3.40;;;;;;;4.56;100.00;101985.41;676618;29;3461;-53
2022/02/08 01:17:15;;;;;;;8.83;3.23;;;;;;;4.57;100.00;101983.75;675108;29;1167;-54
2022/02/08 01:17:36;;;;;;;10.52;3.50;;;;;;;4.56;100.00;101977.66;676449;29;1800;-51
2022/02/08 01:17:58;;;;;;;13.00;3.90;;;;;;;4.58;100.00;101985.47;677248;29;1146;-54
2022/02/08 01:18:18;;;;;;;12.52;3.45;;;;;;;4.57;100.00;101987.19;677752;28;1015;-52
2022/02/08 01:18:42;;;;;;;13.27;3.67;;;;;;;4.56;100.00;101984.53;678269;28;1237;-51
2022/02/08 01:19:05;;;;;;;12.93;4.10;;;;;;;4.62;100.00;101978.72;677519;28;4845;-54
2022/02/08 01:19:25;;;;;;;10.88;3.35;;;;;;;4.60;100.00;101978.69;678770;29;1481;-52
2022/02/08 01:20:04;;;;;;;14.83;4.00;;;;;;;4.58;100.00;101977.72;678535;29;3383;-51
2022/02/08 01:20:34;;;;;;;11.90;3.40;;;;;;;4.56;100.00;101987.13;678304;28;991;-53
2022/02/08 01:20:54;;;;;;;10.80;3.65;;;;;;;4.54;100.00;101991.34;677878;29;1120;-54
2022/02/08 01:21:15;;;;;;;10.37;3.50;;;;;;;4.54;100.00;101979.31;677574;28;1388;-55
2022/02/08 01:21:35;;;;;;;12.70;3.80;;;;;;;4.70;100.00;101985.97;678928;28;1101;-54
2022/02/08 01:21:56;;;;;;;12.17;3.37;;;;;;;4.75;100.00;101993.97;677818;28;1174;-55
2022/02/08 01:22:17;;;;;;;11.60;3.40;;;;;;;4.71;100.00;101987.75;676553;28;4447;-51
2022/02/08 01:22:40;;;;;;;13.18;3.42;;;;;;;4.68;100.00;101985.06;677036;28;3029;-51
2022/02/08 01:23:05;;;;;;;13.35;3.60;;;;;;;4.68;100.00;101987.66;676272;29;1210;-55
2022/02/08 01:23:25;;;;;;;9.88;3.53;;;;;;;4.65;100.00;101982.31;675779;29;1153;-53
2022/02/08 01:23:46;;;;;;;9.60;3.60;;;;;;;4.64;100.00;101988.34;677472;29;1454;-53
2022/02/08 01:24:06;;;;;;;9.57;3.35;;;;;;;4.60;100.00;101986.44;678210;28;1308;-56
2022/02/08 01:24:27;;;;;;;10.38;3.03;;;;;;;4.59;100.00;101980.34;676438;29;2018;-52
2022/02/08 01:24:49;;;;;;;13.70;4.28;;;;;;;4.66;100.00;101983.22;673379;29;1103;-53
2022/02/08 01:25:18;;;;;;;12.80;4.50;;;;;;;4.64;100.00;101987.44;674916;29;4319;-52
2022/02/08 01:25:52;;;;;;;11.27;3.90;;;;;;;4.60;100.00;101986.44;674214;29;3671;-53
2022/02/08 01:26:15;;;;;;;11.10;3.30;;;;;;;4.56;100.00;101992.31;676451;29;1424;-52
2022/02/08 01:26:45;;;;;;;10.98;3.67;;;;;;;4.53;100.00;101987.91;679138;28;1138;-54
2022/02/08 01:27:10;;;;;;;9.90;3.75;;;;;;;4.52;100.00;101986.13;677345;28;2238;-55
2022/02/08 01:27:33;;;;;;;10.50;3.72;;;;;;;4.50;100.00;101990.38;675957;29;2317;-54
2022/02/08 01:27:56;;;;;;;8.85;3.55;;;;;;;4.49;100.00;101986.00;675495;29;1067;-53
2022/02/08 01:29:21;;;;;;;9.75;3.80;;;;;;;4.49;100.00;101990.31;676130;28;2338;-55
2022/02/08 01:30:00;;;;;;;12.88;3.88;;;;;;;4.53;100.00;101979.25;679905;28;1109;-56
2022/02/08 01:30:43;;;;;;;11.85;4.18;;;;;;;4.57;100.00;101973.38;678867;29;1075;-53
2022/02/08 01:31:07;;;;;;;14.02;4.15;;;;;;;4.63;100.00;101980.50;679862;28;4425;-51
2022/02/08 01:31:29;;;;;;;16.30;4.13;;;;;;;4.70;100.00;101980.81;681062;28;1374;-53
2022/02/08 01:31:51;;;;;;;13.45;4.28;;;;;;;4.74;100.00;101982.69;679985;28;1301;-52
2022/02/08 01:33:13;;;;;;;11.95;3.53;;;;;;;4.72;100.00;101984.34;681370;28;1248;-53
2022/02/08 01:34:10;;;;;;;9.40;3.08;;;;;;;4.59;100.00;101982.94;680883;28;3646;-53
2022/02/08 01:34:40;;;;;;;13.80;3.45;;;;;;;4.61;100.00;101988.22;678175;28;6314;-55
2022/02/08 01:35:27;;;;;;;13.90;3.60;;;;;;;4.54;100.00;101984.50;678423;28;1561;-52
2022/02/08 01:36:08;;;;;;;10.88;3.20;;;;;;;4.51;100.00;101986.94;674283;29;1294;-51
2022/02/08 01:37:53;;;;;;;12.68;4.00;;;;;;;4.55;100.00;101991.41;668832;29;5106;-52
2022/02/08 01:38:20;;;;;;;13.23;3.40;;;;;;;4.49;100.00;101985.13;668030;29;992;-55
2022/02/08 01:38:49;;;;;;;12.38;3.63;;;;;;;4.46;100.00;101991.06;668814;29;1319;-54
2022/02/08 01:39:58;;;;;;;11.18;3.60;;;;;;;4.41;100.00;101995.16;676344;28;3470;-53
2022/02/08 01:42:20;;;;;;;12.30;3.85;;;;;;;4.48;100.00;101980.75;672043;29;1269;-53
2022/02/08 01:42:23;;;;;;;10.25;3.22;;;;;;;4.52;100.00;101986.13;680852;28;1236;-52
2022/02/08 01:45:03;;;;;;;12.55;3.22;;;;;;;4.59;100.00;101974.31;668490;29;1486;-52
2022/02/08 01:47:21;;;;;;;13.18;3.58;;;;;;;4.39;100.00;101979.56;675255;29;1238;-55
2022/02/08 01:48:59;;;;;;;12.93;3.25;;;;;;;4.30;100.00;101978.28;668613;29;1038;-55
2022/02/08 01:49:29;;;;;;;9.50;3.13;;;;;;;4.29;100.00;101976.50;676176;28;4515;-56
2022/02/08 01:49:59;;;;;;;10.15;3.10;;;;;;;4.29;100.00;101979.97;681184;28;1378;-52
2022/02/08 01:50:20;;;;;;;9.77;2.95;;;;;;;4.28;100.00;101979.91;678524;29;1322;-56
2022/02/08 01:50:42;;;;;;;8.88;3.05;;;;;;;4.29;100.00;101979.09;677393;29;1325;-56
2022/02/08 01:51:04;;;;;;;9.63;3.42;;;;;;;4.30;100.00;101980.88;676487;29;3642;-56
2022/02/08 01:51:24;;;;;;;9.02;3.28;;;;;;;4.31;100.00;101980.06;675324;29;1541;-52
2022/02/08 01:51:45;;;;;;;11.10;3.05;;;;;;;4.28;100.00;101980.81;678350;29;1259;-55
2022/02/08 01:52:07;;;;;;;11.73;3.20;;;;;;;4.28;100.00;101986.00;677680;28;4454;-52
2022/02/08 01:52:27;;;;;;;10.57;3.27;;;;;;;4.26;100.00;101979.84;676022;29;1004;-55
2022/02/08 01:52:48;;;;;;;9.38;3.10;;;;;;;4.24;100.00;101976.31;672051;29;1276;-52
2022/02/08 01:53:19;;;;;;;13.60;3.92;;;;;;;4.24;100.00;101984.09;670454;29;1713;-54
2022/02/08 01:53:40;;;;;;;11.55;3.65;;;;;;;4.21;100.00;101978.75;675401;29;3228;-53
2022/02/08 01:54:00;;;;;;;12.20;3.58;;;;;;;4.25;100.00;101978.97;675218;29;3794;-53
2022/02/08 01:54:22;;;;;;;14.03;3.93;;;;;;;4.25;100.00;101978.06;673161;29;1391;-52
2022/02/08 01:54:42;;;;;;;12.73;3.90;;;;;;;4.23;100.00;101978.00;677560;29;1251;-52
2022/02/08 01:55:04;;;;;;;12.10;3.87;;;;;;;4.23;100.00;101978.00;675648;29;4600;-54
2022/02/08 01:55:24;;;;;;;11.55;3.65;;;;;;;4.35;100.00;101972.47;675876;29;956;-53
2022/02/08 01:55:45;;;;;;;8.23;3.40;;;;;;;4.39;100.00;101973.50;672623;29;937;-52
2022/02/08 01:56:06;;;;;;;8.30;3.20;;;;;;;4.49;100.00;101970.47;674054;29;1295;-51
2022/02/08 01:56:26;;;;;;;10.55;3.30;;;;;;;4.48;100.00;101976.44;678552;28;1894;-53
2022/02/08 01:56:48;;;;;;;10.47;3.20;;;;;;;4.46;100.00;101974.63;676963;29;3451;-55
2022/02/08 01:57:12;;;;;;;12.50;3.78;;;;;;;4.53;100.00;101981.84;675714;29;1422;-52
2022/02/08 01:57:32;;;;;;;11.32;3.55;;;;;;;4.47;100.00;101973.81;677355;29;1103;-53
2022/02/08 01:57:53;;;;;;;9.07;3.45;;;;;;;4.43;100.00;101977.97;674961;29;1187;-53
2022/02/08 01:58:13;;;;;;;8.77;3.70;;;;;;;4.47;100.00;101972.09;674674;29;4410;-54
2022/02/08 01:58:34;;;;;;;8.88;3.90;;;;;;;4.48;100.00;101973.00;675062;29;1205;-52
2022/02/08 01:59:05;;;;;;;9.85;3.50;;;;;;;4.39;100.00;101971.78;674366;29;1229;-54
2022/02/08 01:59:30;;;;;;;10.38;3.22;;;;;;;4.35;100.00;101969.88;677481;29;3423;-54
2022/02/08 01:59:53;;;;;;;10.38;3.50;;;;;;;4.32;100.00;101969.78;672839;29;1459;-53
2022/02/08 02:00:15;;;;;;;11.30;3.30;;;;;;;4.30;100.00;101963.63;673907;29;1217;-52
2022/02/08 02:00:40;;;;;;;10.93;3.40;;;;;;;4.27;100.00;101968.69;673466;29;1396;-54
2022/02/08 02:01:00;;;;;;;13.60;3.70;;;;;;;4.26;100.00;101966.91;667521;29;4441;-51
2022/02/08 02:01:22;;;;;;;10.57;3.70;;;;;;;4.22;100.00;101970.19;668645;29;946;-52